sensor_id;sensor_type;location;lat;lon;timestamp;P1;durP1;ratioP1;P2;durP2;ratioP2
15153;SDS011;7677;41.896;25.004;2022-12-29T00:01:31;12.00;;;6.73;;
15153;SDS011;7677;41.896;25.004;2022-12-29T00:03:59;12.30;;;7.83;;
15153;SDS011;7677;41.896;25.004;2022-12-29T00:06:31;10.20;;;7.07;;
15153;SDS011;7677;41.896;25.004;2022-12-29T00:08:58;10.53;;;6.93;;
15153;SDS011;7677;41.896;25.004;2022-12-29T00:11:27;11.50;;;7.03;;
15153;SDS011;7677;41.896;25.004;2022-12-29T00:13:55;10.67;;;7.07;;
15153;SDS011;7677;41.896;25.004;2022-12-29T00:16:40;8.60;;;6.30;;
15153;SDS011;7677;41.896;25.004;2022-12-29T00:19:09;15.40;;;7.87;;
15153;SDS011;7677;41.896;25.004;2022-12-29T00:21:58;9.90;;;5.97;;
15153;SDS011;7677;41.896;25.004;2022-12-29T00:24:43;12.73;;;6.53;;
15153;SDS011;7677;41.896;25.004;2022-12-29T00:27:28;8.50;;;6.40;;
15153;SDS011;7677;41.896;25.004;2022-12-29T00:30:14;9.03;;;6.77;;
15153;SDS011;7677;41.896;25.004;2022-12-29T00:32:59;14.43;;;7.50;;
15153;SDS011;7677;41.896;25.004;2022-12-29T00:35:43;15.20;;;7.00;;
15153;SDS011;7677;41.896;25.004;2022-12-29T00:38:14;9.23;;;6.43;;
15153;SDS011;7677;41.896;25.004;2022-12-29T00:40:58;10.30;;;6.27;;
15153;SDS011;7677;41.896;25.004;2022-12-29T00:43:42;12.30;;;7.87;;
15153;SDS011;7677;41.896;25.004;2022-12-29T00:46:29;10.60;;;6.70;;
15153;SDS011;7677;41.896;25.004;2022-12-29T00:48:56;8.17;;;6.47;;
15153;SDS011;7677;41.896;25.004;2022-12-29T00:51:44;11.00;;;6.60;;
15153;SDS011;7677;41.896;25.004;2022-12-29T00:54:13;11.90;;;6.43;;
15153;SDS011;7677;41.896;25.004;2022-12-29T00:56:41;8.80;;;6.87;;
15153;SDS011;7677;41.896;25.004;2022-12-29T00:59:10;12.50;;;6.57;;
15153;SDS011;7677;41.896;25.004;2022-12-29T01:01:38;11.50;;;6.53;;
15153;SDS011;7677;41.896;25.004;2022-12-29T01:04:05;11.73;;;6.87;;
15153;SDS011;7677;41.896;25.004;2022-12-29T01:06:33;15.83;;;7.87;;
15153;SDS011;7677;41.896;25.004;2022-12-29T01:09:02;11.90;;;7.43;;
15153;SDS011;7677;41.896;25.004;2022-12-29T01:11:49;10.50;;;6.70;;
15153;SDS011;7677;41.896;25.004;2022-12-29T01:14:16;10.20;;;6.50;;
15153;SDS011;7677;41.896;25.004;2022-12-29T01:16:44;10.23;;;6.57;;
15153;SDS011;7677;41.896;25.004;2022-12-29T01:19:11;8.30;;;5.73;;
15153;SDS011;7677;41.896;25.004;2022-12-29T01:21:39;10.27;;;6.40;;
15153;SDS011;7677;41.896;25.004;2022-12-29T01:24:06;7.40;;;5.93;;
15153;SDS011;7677;41.896;25.004;2022-12-29T01:26:33;13.20;;;6.87;;
15153;SDS011;7677;41.896;25.004;2022-12-29T01:29:04;10.80;;;6.10;;
15153;SDS011;7677;41.896;25.004;2022-12-29T01:31:32;10.33;;;6.07;;
15153;SDS011;7677;41.896;25.004;2022-12-29T01:33:59;9.83;;;6.37;;
15153;SDS011;7677;41.896;25.004;2022-12-29T01:36:26;10.33;;;6.00;;
15153;SDS011;7677;41.896;25.004;2022-12-29T01:38:53;10.30;;;6.73;;
15153;SDS011;7677;41.896;25.004;2022-12-29T01:41:21;6.90;;;5.50;;
15153;SDS011;7677;41.896;25.004;2022-12-29T01:43:48;12.70;;;6.33;;
15153;SDS011;7677;41.896;25.004;2022-12-29T01:46:22;9.43;;;6.67;;
15153;SDS011;7677;41.896;25.004;2022-12-29T01:48:51;11.10;;;6.53;;
15153;SDS011;7677;41.896;25.004;2022-12-29T01:51:21;10.53;;;6.23;;
15153;SDS011;7677;41.896;25.004;2022-12-29T01:53:49;12.23;;;6.60;;
15153;SDS011;7677;41.896;25.004;2022-12-29T01:56:17;8.90;;;6.47;;
15153;SDS011;7677;41.896;25.004;2022-12-29T01:58:46;17.13;;;8.53;;
15153;SDS011;7677;41.896;25.004;2022-12-29T02:01:15;12.70;;;8.43;;
15153;SDS011;7677;41.896;25.004;2022-12-29T02:03:46;12.20;;;7.90;;
15153;SDS011;7677;41.896;25.004;2022-12-29T02:06:15;10.73;;;6.90;;
15153;SDS011;7677;41.896;25.004;2022-12-29T02:08:45;11.37;;;7.37;;
15153;SDS011;7677;41.896;25.004;2022-12-29T02:11:13;9.57;;;5.80;;
15153;SDS011;7677;41.896;25.004;2022-12-29T02:13:40;16.37;;;8.40;;
15153;SDS011;7677;41.896;25.004;2022-12-29T02:16:12;13.60;;;7.30;;
15153;SDS011;7677;41.896;25.004;2022-12-29T02:18:48;12.03;;;6.63;;
15153;SDS011;7677;41.896;25.004;2022-12-29T02:30:25;11.60;;;7.30;;
15153;SDS011;7677;41.896;25.004;2022-12-29T02:33:09;13.83;;;7.47;;
15153;SDS011;7677;41.896;25.004;2022-12-29T02:35:44;13.03;;;8.47;;
15153;SDS011;7677;41.896;25.004;2022-12-29T02:38:18;14.93;;;7.33;;
15153;SDS011;7677;41.896;25.004;2022-12-29T02:40:50;12.93;;;6.67;;
15153;SDS011;7677;41.896;25.004;2022-12-29T02:43:21;11.13;;;7.70;;
15153;SDS011;7677;41.896;25.004;2022-12-29T02:45:53;13.40;;;7.57;;
15153;SDS011;7677;41.896;25.004;2022-12-29T02:48:24;13.23;;;7.97;;
15153;SDS011;7677;41.896;25.004;2022-12-29T02:50:55;15.90;;;8.17;;
15153;SDS011;7677;41.896;25.004;2022-12-29T02:53:26;12.33;;;8.17;;
15153;SDS011;7677;41.896;25.004;2022-12-29T02:56:07;12.57;;;7.93;;
15153;SDS011;7677;41.896;25.004;2022-12-29T02:58:34;11.43;;;7.40;;
15153;SDS011;7677;41.896;25.004;2022-12-29T03:01:07;13.77;;;7.83;;
15153;SDS011;7677;41.896;25.004;2022-12-29T03:03:46;14.40;;;8.60;;
15153;SDS011;7677;41.896;25.004;2022-12-29T03:06:23;19.67;;;9.90;;
15153;SDS011;7677;41.896;25.004;2022-12-29T03:08:59;10.70;;;7.77;;
15153;SDS011;7677;41.896;25.004;2022-12-29T03:11:33;19.90;;;8.90;;
15153;SDS011;7677;41.896;25.004;2022-12-29T03:14:27;19.23;;;10.03;;
15153;SDS011;7677;41.896;25.004;2022-12-29T03:17:18;15.37;;;9.67;;
15153;SDS011;7677;41.896;25.004;2022-12-29T03:19:56;17.40;;;10.37;;
15153;SDS011;7677;41.896;25.004;2022-12-29T03:22:29;14.77;;;8.87;;
15153;SDS011;7677;41.896;25.004;2022-12-29T03:25:03;16.37;;;9.70;;
15153;SDS011;7677;41.896;25.004;2022-12-29T03:27:36;15.83;;;9.03;;
15153;SDS011;7677;41.896;25.004;2022-12-29T03:30:08;20.40;;;10.70;;
15153;SDS011;7677;41.896;25.004;2022-12-29T03:32:42;18.10;;;9.13;;
15153;SDS011;7677;41.896;25.004;2022-12-29T03:35:13;17.37;;;9.50;;
15153;SDS011;7677;41.896;25.004;2022-12-29T03:37:43;17.13;;;8.63;;
15153;SDS011;7677;41.896;25.004;2022-12-29T03:40:18;14.03;;;8.93;;
15153;SDS011;7677;41.896;25.004;2022-12-29T03:42:50;11.33;;;8.03;;
15153;SDS011;7677;41.896;25.004;2022-12-29T03:45:18;14.57;;;8.63;;
15153;SDS011;7677;41.896;25.004;2022-12-29T03:47:46;12.63;;;8.20;;
15153;SDS011;7677;41.896;25.004;2022-12-29T03:50:14;15.07;;;8.70;;
15153;SDS011;7677;41.896;25.004;2022-12-29T03:52:41;16.87;;;8.93;;
15153;SDS011;7677;41.896;25.004;2022-12-29T03:55:08;17.33;;;9.13;;
15153;SDS011;7677;41.896;25.004;2022-12-29T03:57:36;16.53;;;9.13;;
15153;SDS011;7677;41.896;25.004;2022-12-29T04:00:04;16.70;;;9.37;;
15153;SDS011;7677;41.896;25.004;2022-12-29T04:02:32;11.90;;;7.43;;
15153;SDS011;7677;41.896;25.004;2022-12-29T04:05:00;14.47;;;8.40;;
15153;SDS011;7677;41.896;25.004;2022-12-29T04:07:27;14.83;;;8.77;;
15153;SDS011;7677;41.896;25.004;2022-12-29T04:09:55;18.63;;;10.53;;
15153;SDS011;7677;41.896;25.004;2022-12-29T04:12:22;13.03;;;9.53;;
15153;SDS011;7677;41.896;25.004;2022-12-29T04:14:49;13.53;;;8.83;;
15153;SDS011;7677;41.896;25.004;2022-12-29T04:17:16;13.83;;;8.00;;
15153;SDS011;7677;41.896;25.004;2022-12-29T04:19:44;17.90;;;9.23;;
15153;SDS011;7677;41.896;25.004;2022-12-29T04:22:12;17.73;;;9.63;;
15153;SDS011;7677;41.896;25.004;2022-12-29T04:24:39;17.63;;;9.73;;
15153;SDS011;7677;41.896;25.004;2022-12-29T04:27:06;15.80;;;9.80;;
15153;SDS011;7677;41.896;25.004;2022-12-29T04:29:33;18.30;;;9.77;;
15153;SDS011;7677;41.896;25.004;2022-12-29T04:32:00;16.17;;;8.50;;
15153;SDS011;7677;41.896;25.004;2022-12-29T04:34:27;15.63;;;9.47;;
15153;SDS011;7677;41.896;25.004;2022-12-29T04:36:55;20.30;;;10.43;;
15153;SDS011;7677;41.896;25.004;2022-12-29T04:39:23;16.47;;;10.00;;
15153;SDS011;7677;41.896;25.004;2022-12-29T04:41:50;15.87;;;9.20;;
15153;SDS011;7677;41.896;25.004;2022-12-29T04:44:18;18.47;;;9.20;;
15153;SDS011;7677;41.896;25.004;2022-12-29T04:46:45;14.13;;;8.27;;
15153;SDS011;7677;41.896;25.004;2022-12-29T04:49:12;19.30;;;9.77;;
15153;SDS011;7677;41.896;25.004;2022-12-29T04:51:39;15.67;;;9.53;;
15153;SDS011;7677;41.896;25.004;2022-12-29T04:54:06;16.40;;;8.30;;
15153;SDS011;7677;41.896;25.004;2022-12-29T04:56:35;22.67;;;8.83;;
15153;SDS011;7677;41.896;25.004;2022-12-29T04:59:02;16.60;;;9.80;;
15153;SDS011;7677;41.896;25.004;2022-12-29T05:01:29;16.90;;;8.23;;
15153;SDS011;7677;41.896;25.004;2022-12-29T05:03:56;15.43;;;9.70;;
15153;SDS011;7677;41.896;25.004;2022-12-29T05:06:24;12.90;;;8.27;;
15153;SDS011;7677;41.896;25.004;2022-12-29T05:08:51;13.53;;;7.43;;
15153;SDS011;7677;41.896;25.004;2022-12-29T05:11:18;17.63;;;9.37;;
15153;SDS011;7677;41.896;25.004;2022-12-29T05:13:47;16.37;;;8.27;;
15153;SDS011;7677;41.896;25.004;2022-12-29T05:16:14;19.20;;;7.97;;
15153;SDS011;7677;41.896;25.004;2022-12-29T05:18:41;16.97;;;9.03;;
15153;SDS011;7677;41.896;25.004;2022-12-29T05:21:08;17.33;;;8.40;;
15153;SDS011;7677;41.896;25.004;2022-12-29T05:23:35;16.00;;;9.13;;
15153;SDS011;7677;41.896;25.004;2022-12-29T05:26:03;11.37;;;7.47;;
15153;SDS011;7677;41.896;25.004;2022-12-29T05:28:30;11.67;;;7.43;;
15153;SDS011;7677;41.896;25.004;2022-12-29T05:30:59;13.57;;;8.43;;
15153;SDS011;7677;41.896;25.004;2022-12-29T05:33:26;15.10;;;8.03;;
15153;SDS011;7677;41.896;25.004;2022-12-29T05:35:53;17.70;;;8.80;;
15153;SDS011;7677;41.896;25.004;2022-12-29T05:38:20;16.70;;;9.20;;
15153;SDS011;7677;41.896;25.004;2022-12-29T05:40:47;16.13;;;9.03;;
15153;SDS011;7677;41.896;25.004;2022-12-29T05:43:14;21.40;;;8.97;;
15153;SDS011;7677;41.896;25.004;2022-12-29T05:45:41;13.93;;;7.87;;
15153;SDS011;7677;41.896;25.004;2022-12-29T05:48:10;15.97;;;8.17;;
15153;SDS011;7677;41.896;25.004;2022-12-29T05:50:37;14.53;;;9.17;;
15153;SDS011;7677;41.896;25.004;2022-12-29T05:53:04;14.40;;;7.60;;
15153;SDS011;7677;41.896;25.004;2022-12-29T05:55:31;16.00;;;8.97;;
15153;SDS011;7677;41.896;25.004;2022-12-29T05:57:58;13.70;;;8.17;;
15153;SDS011;7677;41.896;25.004;2022-12-29T06:00:26;17.10;;;9.90;;
15153;SDS011;7677;41.896;25.004;2022-12-29T06:02:53;12.27;;;8.37;;
15153;SDS011;7677;41.896;25.004;2022-12-29T06:05:21;14.80;;;8.33;;
15153;SDS011;7677;41.896;25.004;2022-12-29T06:07:48;12.57;;;8.57;;
15153;SDS011;7677;41.896;25.004;2022-12-29T06:10:16;18.83;;;10.03;;
15153;SDS011;7677;41.896;25.004;2022-12-29T06:12:43;14.77;;;8.37;;
15153;SDS011;7677;41.896;25.004;2022-12-29T06:15:11;19.63;;;9.57;;
15153;SDS011;7677;41.896;25.004;2022-12-29T06:17:38;15.77;;;9.27;;
15153;SDS011;7677;41.896;25.004;2022-12-29T06:20:06;12.03;;;8.23;;
15153;SDS011;7677;41.896;25.004;2022-12-29T06:22:36;13.07;;;7.67;;
15153;SDS011;7677;41.896;25.004;2022-12-29T06:25:03;16.53;;;9.67;;
15153;SDS011;7677;41.896;25.004;2022-12-29T06:27:31;15.87;;;10.30;;
15153;SDS011;7677;41.896;25.004;2022-12-29T06:29:58;21.63;;;10.97;;
15153;SDS011;7677;41.896;25.004;2022-12-29T06:32:26;24.73;;;14.10;;
15153;SDS011;7677;41.896;25.004;2022-12-29T06:34:53;26.10;;;11.97;;
15153;SDS011;7677;41.896;25.004;2022-12-29T06:37:20;17.07;;;10.13;;
15153;SDS011;7677;41.896;25.004;2022-12-29T06:39:49;18.70;;;9.43;;
15153;SDS011;7677;41.896;25.004;2022-12-29T06:42:16;14.03;;;7.97;;
15153;SDS011;7677;41.896;25.004;2022-12-29T06:44:43;14.43;;;8.50;;
15153;SDS011;7677;41.896;25.004;2022-12-29T06:47:10;16.60;;;9.53;;
15153;SDS011;7677;41.896;25.004;2022-12-29T06:49:37;19.97;;;9.03;;
15153;SDS011;7677;41.896;25.004;2022-12-29T06:52:05;12.70;;;8.53;;
15153;SDS011;7677;41.896;25.004;2022-12-29T06:54:32;21.30;;;9.33;;
15153;SDS011;7677;41.896;25.004;2022-12-29T06:57:00;12.53;;;8.33;;
15153;SDS011;7677;41.896;25.004;2022-12-29T06:59:28;16.07;;;8.50;;
15153;SDS011;7677;41.896;25.004;2022-12-29T07:01:55;12.73;;;7.90;;
15153;SDS011;7677;41.896;25.004;2022-12-29T07:04:22;17.50;;;10.00;;
15153;SDS011;7677;41.896;25.004;2022-12-29T07:06:49;11.10;;;7.00;;
15153;SDS011;7677;41.896;25.004;2022-12-29T07:09:16;13.33;;;8.10;;
15153;SDS011;7677;41.896;25.004;2022-12-29T07:11:43;16.13;;;8.37;;
15153;SDS011;7677;41.896;25.004;2022-12-29T07:14:12;17.83;;;8.53;;
15153;SDS011;7677;41.896;25.004;2022-12-29T07:16:39;18.47;;;8.17;;
15153;SDS011;7677;41.896;25.004;2022-12-29T07:19:07;15.63;;;9.00;;
15153;SDS011;7677;41.896;25.004;2022-12-29T07:21:34;18.80;;;9.53;;
15153;SDS011;7677;41.896;25.004;2022-12-29T07:24:01;14.03;;;8.30;;
15153;SDS011;7677;41.896;25.004;2022-12-29T07:26:28;13.03;;;8.73;;
15153;SDS011;7677;41.896;25.004;2022-12-29T07:28:55;19.53;;;10.17;;
15153;SDS011;7677;41.896;25.004;2022-12-29T07:31:24;18.93;;;8.93;;
15153;SDS011;7677;41.896;25.004;2022-12-29T07:33:52;13.40;;;9.50;;
15153;SDS011;7677;41.896;25.004;2022-12-29T07:36:20;16.77;;;12.13;;
15153;SDS011;7677;41.896;25.004;2022-12-29T07:38:47;19.80;;;11.33;;
15153;SDS011;7677;41.896;25.004;2022-12-29T07:41:14;22.65;;;14.65;;
15153;SDS011;7677;41.896;25.004;2022-12-29T07:43:41;17.43;;;10.37;;
15153;SDS011;7677;41.896;25.004;2022-12-29T07:46:09;14.97;;;9.77;;
15153;SDS011;7677;41.896;25.004;2022-12-29T07:48:38;18.57;;;8.87;;
15153;SDS011;7677;41.896;25.004;2022-12-29T07:51:05;15.97;;;8.67;;
15153;SDS011;7677;41.896;25.004;2022-12-29T07:53:32;15.90;;;9.70;;
15153;SDS011;7677;41.896;25.004;2022-12-29T07:56:03;16.20;;;9.67;;
15153;SDS011;7677;41.896;25.004;2022-12-29T07:58:31;18.70;;;10.40;;
15153;SDS011;7677;41.896;25.004;2022-12-29T08:00:58;17.53;;;9.90;;
15153;SDS011;7677;41.896;25.004;2022-12-29T08:03:25;17.50;;;9.90;;
15153;SDS011;7677;41.896;25.004;2022-12-29T08:05:54;22.27;;;11.63;;
15153;SDS011;7677;41.896;25.004;2022-12-29T08:08:23;19.30;;;10.23;;
15153;SDS011;7677;41.896;25.004;2022-12-29T08:10:50;20.93;;;10.37;;
15153;SDS011;7677;41.896;25.004;2022-12-29T08:13:18;18.13;;;9.30;;
15153;SDS011;7677;41.896;25.004;2022-12-29T08:15:45;21.17;;;11.07;;
15153;SDS011;7677;41.896;25.004;2022-12-29T08:18:12;18.97;;;9.87;;
15153;SDS011;7677;41.896;25.004;2022-12-29T08:20:39;21.70;;;11.77;;
15153;SDS011;7677;41.896;25.004;2022-12-29T08:23:08;19.67;;;9.97;;
15153;SDS011;7677;41.896;25.004;2022-12-29T08:25:35;18.57;;;11.10;;
15153;SDS011;7677;41.896;25.004;2022-12-29T08:28:02;18.97;;;10.40;;
15153;SDS011;7677;41.896;25.004;2022-12-29T08:30:30;21.10;;;10.03;;
15153;SDS011;7677;41.896;25.004;2022-12-29T08:32:57;19.40;;;10.97;;
15153;SDS011;7677;41.896;25.004;2022-12-29T08:35:24;20.57;;;11.17;;
15153;SDS011;7677;41.896;25.004;2022-12-29T08:37:51;20.90;;;11.03;;
15153;SDS011;7677;41.896;25.004;2022-12-29T08:40:21;19.83;;;10.43;;
15153;SDS011;7677;41.896;25.004;2022-12-29T08:42:48;19.67;;;10.60;;
15153;SDS011;7677;41.896;25.004;2022-12-29T08:45:15;18.50;;;10.60;;
15153;SDS011;7677;41.896;25.004;2022-12-29T08:47:43;21.47;;;12.10;;
15153;SDS011;7677;41.896;25.004;2022-12-29T08:50:10;20.03;;;11.00;;
15153;SDS011;7677;41.896;25.004;2022-12-29T08:52:37;19.33;;;10.30;;
15153;SDS011;7677;41.896;25.004;2022-12-29T08:55:04;20.83;;;11.00;;
15153;SDS011;7677;41.896;25.004;2022-12-29T08:57:33;29.97;;;10.33;;
15153;SDS011;7677;41.896;25.004;2022-12-29T09:00:01;21.40;;;9.90;;
15153;SDS011;7677;41.896;25.004;2022-12-29T09:02:29;17.73;;;10.10;;
15153;SDS011;7677;41.896;25.004;2022-12-29T09:04:56;15.83;;;10.40;;
15153;SDS011;7677;41.896;25.004;2022-12-29T09:07:24;19.33;;;10.60;;
15153;SDS011;7677;41.896;25.004;2022-12-29T09:09:51;22.40;;;10.83;;
15153;SDS011;7677;41.896;25.004;2022-12-29T09:12:18;19.77;;;12.03;;
15153;SDS011;7677;41.896;25.004;2022-12-29T09:14:47;28.27;;;13.27;;
15153;SDS011;7677;41.896;25.004;2022-12-29T09:17:14;26.60;;;13.90;;
15153;SDS011;7677;41.896;25.004;2022-12-29T09:19:58;25.27;;;13.20;;
15153;SDS011;7677;41.896;25.004;2022-12-29T09:22:26;21.17;;;13.40;;
15153;SDS011;7677;41.896;25.004;2022-12-29T09:24:53;26.07;;;14.10;;
15153;SDS011;7677;41.896;25.004;2022-12-29T09:27:20;24.77;;;12.40;;
15153;SDS011;7677;41.896;25.004;2022-12-29T09:29:49;19.57;;;12.07;;
15153;SDS011;7677;41.896;25.004;2022-12-29T09:32:16;22.20;;;11.43;;
15153;SDS011;7677;41.896;25.004;2022-12-29T09:34:44;22.70;;;12.13;;
15153;SDS011;7677;41.896;25.004;2022-12-29T09:37:11;20.53;;;12.33;;
15153;SDS011;7677;41.896;25.004;2022-12-29T09:39:38;22.10;;;10.30;;
15153;SDS011;7677;41.896;25.004;2022-12-29T09:42:06;18.03;;;10.30;;
15153;SDS011;7677;41.896;25.004;2022-12-29T09:44:42;23.17;;;12.20;;
15153;SDS011;7677;41.896;25.004;2022-12-29T09:47:22;25.13;;;12.87;;
15153;SDS011;7677;41.896;25.004;2022-12-29T09:49:50;15.63;;;10.73;;
15153;SDS011;7677;41.896;25.004;2022-12-29T09:52:20;20.07;;;11.57;;
15153;SDS011;7677;41.896;25.004;2022-12-29T09:54:55;19.70;;;11.60;;
15153;SDS011;7677;41.896;25.004;2022-12-29T09:57:25;21.93;;;11.67;;
15153;SDS011;7677;41.896;25.004;2022-12-29T09:59:56;21.20;;;12.37;;
15153;SDS011;7677;41.896;25.004;2022-12-29T10:02:31;20.20;;;10.63;;
15153;SDS011;7677;41.896;25.004;2022-12-29T10:05:01;21.10;;;11.37;;
15153;SDS011;7677;41.896;25.004;2022-12-29T10:07:31;17.23;;;10.33;;
15153;SDS011;7677;41.896;25.004;2022-12-29T10:10:09;18.40;;;11.07;;
15153;SDS011;7677;41.896;25.004;2022-12-29T10:12:53;16.57;;;11.43;;
15153;SDS011;7677;41.896;25.004;2022-12-29T10:15:38;22.57;;;11.17;;
15153;SDS011;7677;41.896;25.004;2022-12-29T10:18:15;23.27;;;11.63;;
15153;SDS011;7677;41.896;25.004;2022-12-29T10:20:58;17.90;;;10.00;;
15153;SDS011;7677;41.896;25.004;2022-12-29T10:23:31;21.97;;;11.83;;
15153;SDS011;7677;41.896;25.004;2022-12-29T10:26:02;23.43;;;11.33;;
15153;SDS011;7677;41.896;25.004;2022-12-29T10:28:33;20.00;;;11.17;;
15153;SDS011;7677;41.896;25.004;2022-12-29T10:31:05;25.90;;;13.17;;
15153;SDS011;7677;41.896;25.004;2022-12-29T10:33:35;26.43;;;13.07;;
15153;SDS011;7677;41.896;25.004;2022-12-29T10:36:09;19.07;;;11.53;;
15153;SDS011;7677;41.896;25.004;2022-12-29T10:38:42;19.03;;;10.70;;
15153;SDS011;7677;41.896;25.004;2022-12-29T10:41:13;23.40;;;12.73;;
15153;SDS011;7677;41.896;25.004;2022-12-29T10:43:43;22.00;;;12.03;;
15153;SDS011;7677;41.896;25.004;2022-12-29T10:46:14;31.57;;;15.33;;
15153;SDS011;7677;41.896;25.004;2022-12-29T10:48:43;22.73;;;13.83;;
15153;SDS011;7677;41.896;25.004;2022-12-29T10:51:15;23.60;;;13.13;;
15153;SDS011;7677;41.896;25.004;2022-12-29T10:53:47;20.33;;;11.17;;
15153;SDS011;7677;41.896;25.004;2022-12-29T10:56:18;26.40;;;11.77;;
15153;SDS011;7677;41.896;25.004;2022-12-29T10:58:52;22.83;;;11.53;;
15153;SDS011;7677;41.896;25.004;2022-12-29T11:01:23;26.23;;;13.10;;
15153;SDS011;7677;41.896;25.004;2022-12-29T11:03:54;21.33;;;12.53;;
15153;SDS011;7677;41.896;25.004;2022-12-29T11:06:28;19.20;;;11.97;;
15153;SDS011;7677;41.896;25.004;2022-12-29T11:08:56;22.70;;;11.87;;
15153;SDS011;7677;41.896;25.004;2022-12-29T11:11:25;17.90;;;12.27;;
15153;SDS011;7677;41.896;25.004;2022-12-29T11:13:57;22.50;;;12.27;;
15153;SDS011;7677;41.896;25.004;2022-12-29T11:16:29;27.43;;;12.47;;
15153;SDS011;7677;41.896;25.004;2022-12-29T11:18:57;28.57;;;15.27;;
15153;SDS011;7677;41.896;25.004;2022-12-29T11:21:26;28.13;;;13.33;;
15153;SDS011;7677;41.896;25.004;2022-12-29T11:23:57;19.40;;;11.83;;
15153;SDS011;7677;41.896;25.004;2022-12-29T11:26:25;22.33;;;11.93;;
15153;SDS011;7677;41.896;25.004;2022-12-29T11:29:11;19.43;;;11.47;;
15153;SDS011;7677;41.896;25.004;2022-12-29T11:31:46;18.50;;;11.37;;
15153;SDS011;7677;41.896;25.004;2022-12-29T11:34:19;18.83;;;10.67;;
15153;SDS011;7677;41.896;25.004;2022-12-29T11:36:47;17.47;;;10.53;;
15153;SDS011;7677;41.896;25.004;2022-12-29T11:39:26;22.33;;;12.77;;
15153;SDS011;7677;41.896;25.004;2022-12-29T11:41:57;22.60;;;11.63;;
15153;SDS011;7677;41.896;25.004;2022-12-29T11:44:24;18.93;;;11.10;;
15153;SDS011;7677;41.896;25.004;2022-12-29T11:46:55;18.03;;;11.67;;
15153;SDS011;7677;41.896;25.004;2022-12-29T11:49:22;19.67;;;10.80;;
15153;SDS011;7677;41.896;25.004;2022-12-29T11:51:51;20.60;;;10.97;;
15153;SDS011;7677;41.896;25.004;2022-12-29T11:54:22;13.13;;;9.10;;
15153;SDS011;7677;41.896;25.004;2022-12-29T11:56:51;17.23;;;10.70;;
15153;SDS011;7677;41.896;25.004;2022-12-29T11:59:38;18.90;;;10.53;;
15153;SDS011;7677;41.896;25.004;2022-12-29T12:02:15;16.97;;;10.97;;
15153;SDS011;7677;41.896;25.004;2022-12-29T12:05:08;14.60;;;9.00;;
15153;SDS011;7677;41.896;25.004;2022-12-29T12:07:39;18.17;;;10.50;;
15153;SDS011;7677;41.896;25.004;2022-12-29T12:10:11;18.47;;;11.37;;
15153;SDS011;7677;41.896;25.004;2022-12-29T12:12:44;20.43;;;11.30;;
15153;SDS011;7677;41.896;25.004;2022-12-29T12:15:16;17.73;;;11.57;;
15153;SDS011;7677;41.896;25.004;2022-12-29T12:17:49;22.57;;;11.30;;
15153;SDS011;7677;41.896;25.004;2022-12-29T12:20:19;17.90;;;11.40;;
15153;SDS011;7677;41.896;25.004;2022-12-29T12:22:51;18.43;;;10.57;;
15153;SDS011;7677;41.896;25.004;2022-12-29T12:25:27;15.47;;;10.13;;
15153;SDS011;7677;41.896;25.004;2022-12-29T12:27:59;18.33;;;10.17;;
15153;SDS011;7677;41.896;25.004;2022-12-29T12:30:33;18.70;;;10.57;;
15153;SDS011;7677;41.896;25.004;2022-12-29T12:33:16;19.70;;;9.80;;
15153;SDS011;7677;41.896;25.004;2022-12-29T12:35:51;15.17;;;10.10;;
15153;SDS011;7677;41.896;25.004;2022-12-29T12:38:26;17.17;;;9.97;;
15153;SDS011;7677;41.896;25.004;2022-12-29T12:41:00;16.57;;;9.83;;
15153;SDS011;7677;41.896;25.004;2022-12-29T12:46:27;15.70;;;9.30;;
15153;SDS011;7677;41.896;25.004;2022-12-29T12:49:26;19.60;;;11.17;;
15153;SDS011;7677;41.896;25.004;2022-12-29T12:52:15;18.90;;;11.07;;
15153;SDS011;7677;41.896;25.004;2022-12-29T12:54:53;23.07;;;11.00;;
15153;SDS011;7677;41.896;25.004;2022-12-29T12:57:29;17.80;;;10.03;;
15153;SDS011;7677;41.896;25.004;2022-12-29T13:00:04;16.87;;;10.07;;
15153;SDS011;7677;41.896;25.004;2022-12-29T13:02:37;16.63;;;10.13;;
15153;SDS011;7677;41.896;25.004;2022-12-29T13:05:16;19.53;;;9.27;;
15153;SDS011;7677;41.896;25.004;2022-12-29T13:07:55;19.27;;;8.93;;
15153;SDS011;7677;41.896;25.004;2022-12-29T13:10:32;13.90;;;8.57;;
15153;SDS011;7677;41.896;25.004;2022-12-29T13:13:15;14.87;;;8.97;;
15153;SDS011;7677;41.896;25.004;2022-12-29T13:16:06;15.60;;;9.67;;
15153;SDS011;7677;41.896;25.004;2022-12-29T13:18:43;15.90;;;9.43;;
15153;SDS011;7677;41.896;25.004;2022-12-29T13:21:24;17.03;;;10.57;;
15153;SDS011;7677;41.896;25.004;2022-12-29T13:23:58;14.30;;;8.90;;
15153;SDS011;7677;41.896;25.004;2022-12-29T13:26:29;20.73;;;9.90;;
15153;SDS011;7677;41.896;25.004;2022-12-29T13:28:59;17.70;;;8.90;;
15153;SDS011;7677;41.896;25.004;2022-12-29T13:31:33;14.23;;;8.77;;
15153;SDS011;7677;41.896;25.004;2022-12-29T13:34:05;16.50;;;9.10;;
15153;SDS011;7677;41.896;25.004;2022-12-29T13:36:40;13.27;;;8.80;;
15153;SDS011;7677;41.896;25.004;2022-12-29T13:39:10;15.87;;;9.40;;
15153;SDS011;7677;41.896;25.004;2022-12-29T13:41:43;17.07;;;10.13;;
15153;SDS011;7677;41.896;25.004;2022-12-29T13:44:14;15.30;;;7.37;;
15153;SDS011;7677;41.896;25.004;2022-12-29T13:46:44;15.17;;;9.90;;
15153;SDS011;7677;41.896;25.004;2022-12-29T13:49:12;15.37;;;9.43;;
15153;SDS011;7677;41.896;25.004;2022-12-29T13:51:46;13.30;;;9.13;;
15153;SDS011;7677;41.896;25.004;2022-12-29T13:54:17;14.17;;;8.53;;
15153;SDS011;7677;41.896;25.004;2022-12-29T13:56:55;15.10;;;9.10;;
15153;SDS011;7677;41.896;25.004;2022-12-29T13:59:31;14.40;;;9.13;;
15153;SDS011;7677;41.896;25.004;2022-12-29T14:02:09;18.33;;;9.70;;
15153;SDS011;7677;41.896;25.004;2022-12-29T14:04:54;18.93;;;10.63;;
15153;SDS011;7677;41.896;25.004;2022-12-29T14:07:24;18.53;;;10.43;;
15153;SDS011;7677;41.896;25.004;2022-12-29T14:09:52;16.20;;;9.40;;
15153;SDS011;7677;41.896;25.004;2022-12-29T14:12:32;21.30;;;9.43;;
15153;SDS011;7677;41.896;25.004;2022-12-29T14:15:13;14.23;;;9.13;;
15153;SDS011;7677;41.896;25.004;2022-12-29T14:17:45;20.87;;;9.47;;
15153;SDS011;7677;41.896;25.004;2022-12-29T14:20:28;19.47;;;9.67;;
15153;SDS011;7677;41.896;25.004;2022-12-29T14:22:58;10.53;;;8.03;;
15153;SDS011;7677;41.896;25.004;2022-12-29T14:28:27;16.97;;;9.67;;
15153;SDS011;7677;41.896;25.004;2022-12-29T14:30:55;14.33;;;9.53;;
15153;SDS011;7677;41.896;25.004;2022-12-29T14:33:24;21.07;;;8.93;;
15153;SDS011;7677;41.896;25.004;2022-12-29T14:35:53;15.17;;;8.67;;
15153;SDS011;7677;41.896;25.004;2022-12-29T14:38:26;12.00;;;7.77;;
15153;SDS011;7677;41.896;25.004;2022-12-29T14:43:56;11.20;;;7.90;;
15153;SDS011;7677;41.896;25.004;2022-12-29T14:46:25;12.17;;;7.40;;
15153;SDS011;7677;41.896;25.004;2022-12-29T14:48:56;12.53;;;7.47;;
15153;SDS011;7677;41.896;25.004;2022-12-29T14:51:28;12.00;;;7.40;;
15153;SDS011;7677;41.896;25.004;2022-12-29T14:53:59;13.20;;;7.40;;
15153;SDS011;7677;41.896;25.004;2022-12-29T14:56:27;16.37;;;7.53;;
15153;SDS011;7677;41.896;25.004;2022-12-29T14:58:58;12.60;;;7.83;;
15153;SDS011;7677;41.896;25.004;2022-12-29T15:01:36;12.30;;;7.83;;
15153;SDS011;7677;41.896;25.004;2022-12-29T15:04:13;13.93;;;7.70;;
15153;SDS011;7677;41.896;25.004;2022-12-29T15:06:42;12.03;;;7.53;;
15153;SDS011;7677;41.896;25.004;2022-12-29T15:09:15;13.57;;;8.00;;
15153;SDS011;7677;41.896;25.004;2022-12-29T15:11:51;13.10;;;8.73;;